createdAt,value
2019-06-10T00:00:13.504Z,16.40
2019-06-10T00:02:34.339Z,16.40
2019-06-10T00:05:03.733Z,16.40
2019-06-10T00:07:28.706Z,16.40
2019-06-10T00:09:56.115Z,16.40
2019-06-10T00:12:22.392Z,16.40
2019-06-10T00:14:50.929Z,16.30
2019-06-10T00:17:16.758Z,16.40
2019-06-10T00:19:42.934Z,16.40
2019-06-10T00:22:11.500Z,16.40
2019-06-10T00:24:37.903Z,16.40
2019-06-10T00:27:06.869Z,16.40
2019-06-10T00:29:32.845Z,16.30
2019-06-10T00:32:01.734Z,16.40
2019-06-10T00:34:27.215Z,16.40
2019-06-10T00:36:53.382Z,16.30
2019-06-10T00:39:21.943Z,16.40
2019-06-10T00:41:47.558Z,16.40
2019-06-10T00:44:13.738Z,16.50
2019-06-10T00:46:40.843Z,16.40
2019-06-10T00:49:08.130Z,16.40
2019-06-10T00:51:35.306Z,16.30
2019-06-10T00:54:03.696Z,16.30
2019-06-10T00:56:30.846Z,16.40
2019-06-10T00:58:57.375Z,16.30
2019-06-10T01:01:23.578Z,16.30
2019-06-10T01:03:50.917Z,16.30
2019-06-10T01:06:17.231Z,16.20
2019-06-10T01:08:43.430Z,16.30
2019-06-10T01:11:16.532Z,16.30
2019-06-10T01:13:37.593Z,16.30
2019-06-10T01:16:03.951Z,16.20
2019-06-10T01:18:37.560Z,16.30
2019-06-10T01:20:58.343Z,16.20
2019-06-10T01:23:24.486Z,16.20
2019-06-10T01:25:51.151Z,16.20
2019-06-10T01:28:18.615Z,16.20
2019-06-10T01:30:44.982Z,16.20
2019-06-10T01:33:13.200Z,16.30
2019-06-10T01:35:41.442Z,16.30
2019-06-10T01:38:07.845Z,16.30
2019-06-10T01:40:34.048Z,16.20
2019-06-10T01:43:01.085Z,16.20
2019-06-10T01:45:27.518Z,16.20
2019-06-10T01:47:53.690Z,16.20
2019-06-10T01:50:21.854Z,16.20
2019-06-10T01:52:47.864Z,16.30
2019-06-10T01:55:15.582Z,16.20
2019-06-10T01:57:42.022Z,16.10
2019-06-10T02:00:11.953Z,16.20
2019-06-10T02:02:37.062Z,16.20
2019-06-10T02:05:05.683Z,16.20
2019-06-10T02:07:32.089Z,16.20
2019-06-10T02:09:58.354Z,16.20
2019-06-10T02:12:24.564Z,16.30
2019-06-10T02:14:51.140Z,16.20
2019-06-10T02:17:17.978Z,16.20
2019-06-10T02:19:45.279Z,16.20
2019-06-10T02:22:13.648Z,16.20
2019-06-10T02:24:41.542Z,16.10
2019-06-10T02:27:07.668Z,16.10
2019-06-10T02:29:34.438Z,16.10
2019-06-10T02:32:04.464Z,16.10
2019-06-10T02:34:28.616Z,16.10
2019-06-10T02:36:54.914Z,16.10
2019-06-10T02:39:28.029Z,16.10
2019-06-10T02:41:53.580Z,16.00
2019-06-10T02:44:24.008Z,16.10
2019-06-10T02:46:46.992Z,16.00
2019-06-10T02:49:29.953Z,16.00
2019-06-10T02:51:43.662Z,15.90
2019-06-10T02:54:09.148Z,16.00
2019-06-10T02:56:36.893Z,16.00
2019-06-10T02:59:03.606Z,16.00
2019-06-10T03:01:34.304Z,15.90
2019-06-10T03:03:57.880Z,16.00
2019-06-10T03:06:31.894Z,16.00
2019-06-10T03:08:54.837Z,16.00
2019-06-10T03:11:24.269Z,15.90
2019-06-10T03:13:48.082Z,15.90
2019-06-10T03:16:16.158Z,15.90
2019-06-10T03:18:43.403Z,15.90
2019-06-10T03:21:12.231Z,15.80
2019-06-10T03:23:37.947Z,15.80
2019-06-10T03:26:04.530Z,15.80
2019-06-10T03:28:32.143Z,15.80
2019-06-10T03:31:04.296Z,15.80
2019-06-10T03:33:39.334Z,15.90
2019-06-10T03:35:56.292Z,15.90
2019-06-10T03:38:23.686Z,15.90
2019-06-10T03:40:52.431Z,15.90
2019-06-10T03:43:18.772Z,15.90
2019-06-10T03:45:45.319Z,15.90
2019-06-10T03:48:13.097Z,15.90
2019-06-10T03:50:39.615Z,15.90
2019-06-10T03:53:05.780Z,15.90
2019-06-10T03:55:33.100Z,15.90
2019-06-10T03:58:02.035Z,16.00
2019-06-10T04:00:28.846Z,16.00
2019-06-10T04:02:55.209Z,15.90
2019-06-10T04:05:23.887Z,16.00
2019-06-10T04:07:49.496Z,16.00
2019-06-10T04:10:15.766Z,15.90
2019-06-10T04:12:43.470Z,16.00
2019-06-10T04:15:12.138Z,16.00
2019-06-10T04:17:37.962Z,16.10
2019-06-10T04:20:11.732Z,16.10
2019-06-10T04:22:32.955Z,16.20
2019-06-10T04:24:59.315Z,16.20
2019-06-10T04:27:27.147Z,16.20
2019-06-10T04:29:54.002Z,16.20
2019-06-10T04:32:22.760Z,16.20
2019-06-10T04:34:48.598Z,16.20
2019-06-10T04:37:14.763Z,16.30
2019-06-10T04:39:42.727Z,16.20
2019-06-10T04:42:09.163Z,16.20
2019-06-10T04:44:35.347Z,16.30
2019-06-10T04:47:02.742Z,16.20
2019-06-10T04:49:29.807Z,16.20
2019-06-10T04:51:56.010Z,16.10
2019-06-10T04:54:23.859Z,16.20
2019-06-10T04:56:52.909Z,16.30
2019-06-10T04:59:18.996Z,16.30
2019-06-10T05:01:45.170Z,16.30
2019-06-10T05:04:12.601Z,16.40
2019-06-10T05:06:39.054Z,16.70
2019-06-10T05:09:05.230Z,16.90
2019-06-10T05:11:33.088Z,16.80
2019-06-10T05:13:59.515Z,16.90
2019-06-10T05:16:30.057Z,17.10
2019-06-10T05:18:54.822Z,17.10
2019-06-10T05:21:24.527Z,17.10
2019-06-10T05:23:49.254Z,16.90
2019-06-10T05:26:15.450Z,16.80
2019-06-10T05:28:43.247Z,16.80
2019-06-10T05:31:09.602Z,16.90
2019-06-10T05:33:36.140Z,17.10
2019-06-10T05:36:02.657Z,16.90
2019-06-10T05:38:29.986Z,16.80
2019-06-10T05:40:56.901Z,16.80
2019-06-10T05:43:24.768Z,16.90
2019-06-10T05:45:53.016Z,16.90
2019-06-10T05:48:22.698Z,16.90
2019-06-10T05:51:00.169Z,17.00
2019-06-10T05:53:16.138Z,17.00
2019-06-10T05:55:42.797Z,17.00
2019-06-10T05:58:09.158Z,16.80
2019-06-10T06:00:35.716Z,16.80
2019-06-10T06:03:02.785Z,16.90
2019-06-10T06:05:30.200Z,16.90
2019-06-10T06:08:04.803Z,16.90
2019-06-10T06:10:25.469Z,16.80
2019-06-10T06:12:52.699Z,16.80
2019-06-10T06:15:19.054Z,16.90
2019-06-10T06:17:45.255Z,17.00
2019-06-10T06:20:13.312Z,17.00
2019-06-10T06:22:39.890Z,17.10
2019-06-10T06:25:06.617Z,17.00
2019-06-10T06:27:33.879Z,17.20
2019-06-10T06:30:07.030Z,17.30
2019-06-10T06:32:28.912Z,17.40
2019-06-10T06:34:56.375Z,17.50
2019-06-10T06:37:23.112Z,17.60
2019-06-10T06:39:52.196Z,17.60
2019-06-10T06:42:17.539Z,17.60
2019-06-10T06:44:43.713Z,17.50
2019-06-10T06:47:09.912Z,17.50
2019-06-10T06:49:37.110Z,17.50
2019-06-10T06:52:03.821Z,17.50
2019-06-10T06:54:30.541Z,17.40
2019-06-10T06:56:56.750Z,17.30
2019-06-10T06:59:23.201Z,17.30
2019-06-10T07:01:49.334Z,17.20
2019-06-10T07:04:15.817Z,17.20
2019-06-10T07:06:43.217Z,17.20
2019-06-10T07:09:09.778Z,17.30
2019-06-10T07:11:38.362Z,17.30
2019-06-10T07:14:04.239Z,17.30
2019-06-10T07:16:34.038Z,17.40
2019-06-10T07:18:58.606Z,17.30
2019-06-10T07:21:24.782Z,17.40
2019-06-10T07:23:52.807Z,17.30
2019-06-10T07:26:19.247Z,17.20
2019-06-10T07:28:47.506Z,17.20
2019-06-10T07:31:23.280Z,17.00
2019-06-10T07:33:45.805Z,17.00
2019-06-10T07:36:09.786Z,17.00
2019-06-10T07:38:39.192Z,17.00
2019-06-10T07:41:03.975Z,17.00
2019-06-10T07:43:32.385Z,17.10
2019-06-10T07:45:58.263Z,17.30
2019-06-10T07:48:24.426Z,17.20
2019-06-10T07:50:53.065Z,17.20
2019-06-10T07:53:18.718Z,17.20
2019-06-10T07:55:46.549Z,17.30
2019-06-10T07:58:13.073Z,17.40
2019-06-10T08:00:40.835Z,17.60
2019-06-10T08:03:07.409Z,17.50
2019-06-10T08:05:34.226Z,17.60
2019-06-10T08:08:02.800Z,17.70
2019-06-10T08:10:28.703Z,17.90
2019-06-10T08:12:55.342Z,18.10
2019-06-10T08:15:23.647Z,18.20
2019-06-10T08:17:49.814Z,18.50
2019-06-10T08:20:17.996Z,18.20
2019-06-10T08:22:50.792Z,18.30
2019-06-10T08:25:12.504Z,18.40
2019-06-10T08:27:38.718Z,18.40
2019-06-10T08:30:21.069Z,18.40
2019-06-10T08:32:36.052Z,18.20
2019-06-10T08:35:03.013Z,18.20
2019-06-10T08:37:30.378Z,18.10
2019-06-10T08:39:56.550Z,18.00
2019-06-10T08:42:23.358Z,18.00
2019-06-10T08:44:49.859Z,17.90
2019-06-10T08:47:16.129Z,17.90
2019-06-10T08:49:44.530Z,18.00
2019-06-10T08:52:12.309Z,18.20
2019-06-10T08:54:39.608Z,18.40
2019-06-10T08:57:06.543Z,18.70
2019-06-10T08:59:33.219Z,18.70
2019-06-10T09:01:59.511Z,18.90
2019-06-10T09:04:28.666Z,18.80
2019-06-10T09:06:53.972Z,18.90
2019-06-10T09:09:22.469Z,18.80
2019-06-10T09:11:51.323Z,18.50
2019-06-10T09:14:16.246Z,18.60
2019-06-10T09:16:46.945Z,18.50
2019-06-10T09:19:12.509Z,18.30
2019-06-10T09:21:39.165Z,18.40
2019-06-10T09:24:06.473Z,18.50
2019-06-10T09:26:33.749Z,18.80
2019-06-10T09:29:02.691Z,19.20
2019-06-10T09:31:28.280Z,19.30
2019-06-10T09:33:57.038Z,19.20
2019-06-10T09:36:23.541Z,19.40
2019-06-10T09:38:55.049Z,19.80
2019-06-10T09:41:18.934Z,19.40
2019-06-10T09:43:50.335Z,19.10
2019-06-10T09:46:13.809Z,19.00
2019-06-10T09:48:41.075Z,18.80
2019-06-10T09:51:07.994Z,18.70
2019-06-10T09:53:42.410Z,18.50
2019-06-10T09:56:04.219Z,18.50
2019-06-10T09:58:32.705Z,18.50
2019-06-10T10:00:58.582Z,18.40
2019-06-10T10:03:25.208Z,18.60
2019-06-10T10:06:01.656Z,18.90
2019-06-10T10:08:19.826Z,18.90
2019-06-10T10:10:50.147Z,18.70
2019-06-10T10:13:14.099Z,18.60
2019-06-10T10:15:41.755Z,18.60
2019-06-10T10:18:09.948Z,18.30
2019-06-10T10:20:36.445Z,18.00
2019-06-10T10:23:03.827Z,17.70
2019-06-10T10:25:32.656Z,17.50
2019-06-10T10:27:58.115Z,17.30
2019-06-10T10:30:25.087Z,17.10
2019-06-10T10:32:53.951Z,16.90
2019-06-10T10:35:24.101Z,16.70
2019-06-10T10:37:51.613Z,16.50
2019-06-10T10:40:18.796Z,16.40
2019-06-10T10:42:51.367Z,16.20
2019-06-10T10:45:14.114Z,16.20
2019-06-10T10:47:40.295Z,16.10
2019-06-10T10:50:07.430Z,16.00
2019-06-10T10:52:33.773Z,15.90
2019-06-10T10:55:05.872Z,15.80
2019-06-10T10:57:28.126Z,15.50
2019-06-10T10:59:56.140Z,15.60
2019-06-10T11:02:22.790Z,15.60
2019-06-10T11:04:49.688Z,15.60
2019-06-10T11:07:16.062Z,15.60
2019-06-10T11:09:42.875Z,15.50
2019-06-10T11:12:10.854Z,15.40
2019-06-10T11:14:37.134Z,15.40
2019-06-10T11:17:03.321Z,15.50
2019-06-10T11:19:32.120Z,15.60
2019-06-10T11:21:57.889Z,15.70
2019-06-10T11:24:36.433Z,15.70
2019-06-10T11:26:56.040Z,15.80
2019-06-10T11:29:20.341Z,15.90
2019-06-10T11:31:46.539Z,15.70
2019-06-10T11:34:12.790Z,15.60
2019-06-10T11:36:39.334Z,15.60
2019-06-10T11:39:06.802Z,15.90
2019-06-10T11:41:33.690Z,16.20
2019-06-10T11:43:59.880Z,16.40
2019-06-10T11:46:26.043Z,16.50
2019-06-10T11:48:55.587Z,16.70
2019-06-10T11:51:20.231Z,17.00
2019-06-10T11:53:47.448Z,17.10
2019-06-10T11:56:14.120Z,17.10
2019-06-10T11:58:42.705Z,16.90
2019-06-10T12:01:08.467Z,17.10
2019-06-10T12:03:34.627Z,17.10
2019-06-10T12:06:05.046Z,16.70
2019-06-10T12:08:28.878Z,16.60
2019-06-10T12:10:58.766Z,17.00
2019-06-10T12:13:23.062Z,17.10
2019-06-10T12:16:48.263Z,17.30
2019-06-10T12:18:17.402Z,17.70
2019-06-10T12:20:43.580Z,17.50
2019-06-10T12:23:09.765Z,17.70
2019-06-10T12:25:39.591Z,17.70
2019-06-10T12:28:07.289Z,17.80
2019-06-10T12:30:34.409Z,17.70
2019-06-10T12:33:02.980Z,17.60
2019-06-10T12:35:28.231Z,17.70
2019-06-10T12:37:57.883Z,17.90
2019-06-10T12:40:23.312Z,17.90
2019-06-10T12:42:52.451Z,18.10
2019-06-10T12:45:18.142Z,18.50
2019-06-10T12:47:44.345Z,18.20
2019-06-10T12:50:12.142Z,18.50
2019-06-10T12:52:39.002Z,18.80
2019-06-10T12:55:06.071Z,18.50
2019-06-10T12:57:32.598Z,18.60
2019-06-10T12:59:58.825Z,18.80
2019-06-10T13:02:31.298Z,18.90
2019-06-10T13:04:53.247Z,19.40
2019-06-10T13:07:19.526Z,19.50
2019-06-10T13:09:45.835Z,19.10
2019-06-10T13:12:13.049Z,18.90
2019-06-10T13:14:39.699Z,19.20
2019-06-10T13:17:06.008Z,19.70
2019-06-10T13:19:34.389Z,19.80
2019-06-10T13:22:01.296Z,19.60
2019-06-10T13:24:28.278Z,19.40
2019-06-10T13:26:54.470Z,19.60
2019-06-10T13:29:20.655Z,19.40
2019-06-10T13:31:47.059Z,18.90
2019-06-10T13:34:14.611Z,18.70
2019-06-10T13:36:42.182Z,18.70
2019-06-10T13:39:10.507Z,18.80
2019-06-10T13:41:36.693Z,18.60
2019-06-10T13:44:04.237Z,18.40
2019-06-10T13:46:32.950Z,18.60
2019-06-10T13:48:59.767Z,18.90
2019-06-10T13:51:26.050Z,19.10
2019-06-10T13:53:53.711Z,19.10
2019-06-10T13:56:39.913Z,19.20
2019-06-10T13:58:48.330Z,18.80
2019-06-10T14:01:21.379Z,18.80
2019-06-10T14:03:43.228Z,18.80
2019-06-10T14:06:31.373Z,19.00
2019-06-10T14:08:38.239Z,19.10
2019-06-10T14:11:07.453Z,19.30
2019-06-10T14:13:32.847Z,19.40
2019-06-10T14:15:59.116Z,19.70
2019-06-10T14:18:25.299Z,19.60
2019-06-10T14:20:53.269Z,19.40
2019-06-10T14:23:21.813Z,19.40
2019-06-10T14:25:47.542Z,19.50
2019-06-10T14:28:32.272Z,19.40
2019-06-10T14:30:43.019Z,19.20
2019-06-10T14:33:09.431Z,19.30
2019-06-10T14:35:35.803Z,19.40
2019-06-10T14:38:03.505Z,19.60
2019-06-10T14:40:32.308Z,20.00
2019-06-10T14:42:57.999Z,20.10
2019-06-10T14:45:24.572Z,19.90
2019-06-10T14:47:50.764Z,19.70
2019-06-10T14:50:17.489Z,19.70
2019-06-10T14:52:43.790Z,20.00
2019-06-10T14:55:11.888Z,21.40
2019-06-10T14:57:38.138Z,21.20
2019-06-10T15:00:05.559Z,20.40
2019-06-10T15:02:33.409Z,20.40
2019-06-10T15:05:02.639Z,20.80
2019-06-10T15:07:27.847Z,21.20
2019-06-10T15:09:54.064Z,21.70
2019-06-10T15:12:22.625Z,22.50
2019-06-10T15:14:48.218Z,23.20
2019-06-10T15:17:14.696Z,23.30
2019-06-10T15:19:42.520Z,23.00
2019-06-10T15:22:09.518Z,22.30
2019-06-10T15:24:36.556Z,21.90
2019-06-10T15:27:12.716Z,21.80
2019-06-10T15:29:32.841Z,21.80
2019-06-10T15:32:13.592Z,21.90
2019-06-10T15:34:26.799Z,22.00
2019-06-10T15:36:53.202Z,22.20
2019-06-10T15:39:23.399Z,22.30
2019-06-10T15:41:47.445Z,21.80
2019-06-10T15:44:17.374Z,21.40
2019-06-10T15:46:43.195Z,21.10
2019-06-10T15:49:11.986Z,21.00
2019-06-10T15:51:37.580Z,20.80
2019-06-10T15:54:03.883Z,20.70
2019-06-10T15:56:43.717Z,20.40
2019-06-10T15:58:58.243Z,19.90
2019-06-10T16:01:26.861Z,19.40
2019-06-10T16:03:52.889Z,19.00
2019-06-10T16:06:20.238Z,18.90
2019-06-10T16:08:47.306Z,19.00
2019-06-10T16:11:16.592Z,19.10
2019-06-10T16:13:42.977Z,19.00
2019-06-10T16:16:09.310Z,19.00
2019-06-10T16:18:35.482Z,19.00
2019-06-10T16:21:04.452Z,18.90
2019-06-10T16:23:29.707Z,18.80
2019-06-10T16:25:55.882Z,18.70
2019-06-10T16:28:23.410Z,18.80
2019-06-10T16:30:50.259Z,19.10
2019-06-10T16:33:16.596Z,19.30
2019-06-10T16:35:42.979Z,19.20
2019-06-10T16:38:09.253Z,19.00
2019-06-10T16:40:35.419Z,18.80
2019-06-10T16:43:01.655Z,18.70
2019-06-10T16:45:30.819Z,18.70
2019-06-10T16:47:56.053Z,18.70
2019-06-10T16:50:24.327Z,18.80
2019-06-10T16:52:50.290Z,18.70
2019-06-10T16:55:17.523Z,18.60
2019-06-10T16:57:58.405Z,18.70
2019-06-10T17:00:14.539Z,18.90
2019-06-10T17:02:42.524Z,18.80
2019-06-10T17:05:08.314Z,18.80
2019-06-10T17:07:34.496Z,18.60
2019-06-10T17:10:02.386Z,18.60
2019-06-10T17:12:30.222Z,18.50
2019-06-10T17:14:56.960Z,18.40
2019-06-10T17:17:25.182Z,18.30
2019-06-10T17:19:51.238Z,18.50
2019-06-10T17:22:18.684Z,18.50
2019-06-10T17:24:44.998Z,18.60
2019-06-10T17:27:13.094Z,18.60
2019-06-10T17:29:39.458Z,18.60
2019-06-10T17:32:05.938Z,18.70
2019-06-10T17:34:33.917Z,18.70
2019-06-10T17:37:00.116Z,18.70
2019-06-10T17:39:27.032Z,18.60
2019-06-10T17:41:54.302Z,18.50
2019-06-10T17:44:23.673Z,18.60
2019-06-10T17:46:48.450Z,18.60
2019-06-10T17:49:15.816Z,18.60
2019-06-10T17:51:43.251Z,18.60
2019-06-10T17:54:09.783Z,18.70
2019-06-10T17:56:36.492Z,18.60
2019-06-10T17:59:03.471Z,18.50
2019-06-10T18:01:31.731Z,18.60
2019-06-10T18:03:58.158Z,18.50
2019-06-10T18:06:25.965Z,18.50
2019-06-10T18:08:52.689Z,18.60
2019-06-10T18:11:19.220Z,18.60
2019-06-10T18:13:45.397Z,18.50
2019-06-10T18:16:13.194Z,18.50
2019-06-10T18:18:42.391Z,18.40
2019-06-10T18:21:07.755Z,18.40
2019-06-10T18:23:35.179Z,18.40
2019-06-10T18:26:03.240Z,18.40
2019-06-10T18:28:31.344Z,18.40
2019-06-10T18:30:57.915Z,18.30
2019-06-10T18:33:25.522Z,18.30
2019-06-10T18:35:53.281Z,18.30
2019-06-10T18:38:19.694Z,18.40
2019-06-10T18:40:47.004Z,18.10
2019-06-10T18:43:13.366Z,17.70
2019-06-10T18:45:40.469Z,17.50
2019-06-10T18:48:06.810Z,17.40
2019-06-10T18:50:36.096Z,17.30
2019-06-10T18:53:04.168Z,16.80
2019-06-10T18:55:31.424Z,16.40
2019-06-10T18:57:58.484Z,16.40
2019-06-10T19:00:25.068Z,16.50
2019-06-10T19:03:08.694Z,16.50
2019-06-10T19:05:19.527Z,16.40
2019-06-10T19:07:46.888Z,16.30
2019-06-10T19:10:13.611Z,16.30
2019-06-10T19:12:39.810Z,16.20
2019-06-10T19:15:06.773Z,16.30
2019-06-10T19:17:35.344Z,16.30
2019-06-10T19:20:03.755Z,16.20
2019-06-10T19:22:30.059Z,16.20
2019-06-10T19:24:56.512Z,16.30
2019-06-10T19:27:23.720Z,16.10
2019-06-10T19:29:53.858Z,16.20
2019-06-10T19:32:18.519Z,16.30
2019-06-10T19:34:48.205Z,16.20
2019-06-10T19:37:12.922Z,16.30
2019-06-10T19:39:46.153Z,16.40
2019-06-10T19:42:09.353Z,16.50
2019-06-10T19:44:36.981Z,16.60
2019-06-10T19:47:03.563Z,16.60
2019-06-10T19:49:32.242Z,16.50
2019-06-10T19:51:58.342Z,16.30
2019-06-10T19:54:24.538Z,16.30
2019-06-10T19:56:52.374Z,16.20
2019-06-10T19:59:18.683Z,16.10
2019-06-10T20:01:46.711Z,16.10
2019-06-10T20:04:15.612Z,16.00
2019-06-10T20:06:44.403Z,16.00
2019-06-10T20:09:09.630Z,16.00
2019-06-10T20:11:36.151Z,15.90
2019-06-10T20:14:02.800Z,15.90
2019-06-10T20:16:29.010Z,15.90
2019-06-10T20:18:55.193Z,15.90
2019-06-10T20:21:22.700Z,15.80
2019-06-10T20:23:49.208Z,15.90
2019-06-10T20:26:15.557Z,15.90
2019-06-10T20:28:43.739Z,15.90
2019-06-10T20:31:09.950Z,15.80
2019-06-10T20:33:38.581Z,15.70
2019-06-10T20:36:07.991Z,15.80
2019-06-10T20:38:33.131Z,15.80
2019-06-10T20:40:59.299Z,15.70
2019-06-10T20:43:25.671Z,15.70
2019-06-10T20:45:52.030Z,15.70
2019-06-10T20:48:18.198Z,15.70
2019-06-10T20:50:47.384Z,15.70
2019-06-10T20:53:18.191Z,15.60
2019-06-10T20:55:49.453Z,15.60
2019-06-10T20:58:12.313Z,15.60
2019-06-10T21:00:41.921Z,15.50
2019-06-10T21:03:06.292Z,15.40
2019-06-10T21:05:32.675Z,15.30
2019-06-10T21:07:59.138Z,15.30
2019-06-10T21:10:29.126Z,15.20
2019-06-10T21:12:55.298Z,15.20
2019-06-10T21:15:22.835Z,15.10
2019-06-10T21:17:49.264Z,15.10
2019-06-10T21:20:15.570Z,15.10
2019-06-10T21:22:44.241Z,15.00
2019-06-10T21:25:12.174Z,15.00
2019-06-10T21:27:37.942Z,15.00
2019-06-10T21:30:11.386Z,15.00
2019-06-10T21:32:32.833Z,14.90
2019-06-10T21:34:59.023Z,14.80
2019-06-10T21:37:25.330Z,14.80
2019-06-10T21:39:55.169Z,14.80
2019-06-10T21:42:19.474Z,14.70
2019-06-10T21:44:45.930Z,14.50
2019-06-10T21:47:12.945Z,14.30
2019-06-10T21:49:39.583Z,14.30
2019-06-10T21:52:06.194Z,14.20
2019-06-10T21:54:33.110Z,14.10
2019-06-10T21:56:59.623Z,14.10
2019-06-10T21:59:26.547Z,14.00
2019-06-10T22:01:53.409Z,13.90
2019-06-10T22:04:22.336Z,13.90
2019-06-10T22:06:49.585Z,13.90
2019-06-10T22:09:16.059Z,13.80
2019-06-10T22:11:43.826Z,13.70
2019-06-10T22:14:12.102Z,13.70
2019-06-10T22:16:38.618Z,13.70
2019-06-10T22:19:05.090Z,13.70
2019-06-10T22:21:32.597Z,13.60
2019-06-10T22:23:59.365Z,13.70
2019-06-10T22:26:25.849Z,13.70
2019-06-10T22:28:55.442Z,13.70
2019-06-10T22:31:23.868Z,13.70
2019-06-10T22:33:49.499Z,13.70
2019-06-10T22:36:15.799Z,13.60
2019-06-10T22:38:41.972Z,13.60
2019-06-10T22:41:08.149Z,13.50
2019-06-10T22:43:34.345Z,13.50
2019-06-10T22:46:00.513Z,13.40
2019-06-10T22:48:26.781Z,13.30
2019-06-10T22:50:53.354Z,13.30
2019-06-10T22:53:19.542Z,13.30
2019-06-10T22:55:46.006Z,13.20
2019-06-10T22:58:14.472Z,13.10
2019-06-10T23:00:40.203Z,13.10
2019-06-10T23:03:06.507Z,13.10
2019-06-10T23:05:33.308Z,13.00
2019-06-10T23:07:59.567Z,13.00
2019-06-10T23:10:25.840Z,13.00
2019-06-10T23:12:54.745Z,13.00
2019-06-10T23:15:20.028Z,12.90
2019-06-10T23:17:46.314Z,12.80
2019-06-10T23:20:12.513Z,12.80
2019-06-10T23:22:38.701Z,12.80
2019-06-10T23:25:05.186Z,12.80
2019-06-10T23:27:32.824Z,12.80
2019-06-10T23:30:00.312Z,12.70
2019-06-10T23:32:27.158Z,12.70
2019-06-10T23:34:54.693Z,12.70
2019-06-10T23:37:22.966Z,12.70
2019-06-10T23:39:50.615Z,12.60
2019-06-10T23:42:17.064Z,12.50
2019-06-10T23:44:43.238Z,12.60
2019-06-10T23:47:09.417Z,12.50
2019-06-10T23:49:35.742Z,12.50
2019-06-10T23:52:04.673Z,12.40
2019-06-10T23:54:32.183Z,12.40
2019-06-10T23:56:58.670Z,12.40
2019-06-10T23:59:24.946Z,12.30
